createdAt,value
2023-04-08T00:01:36.503Z,13.66
2023-04-08T00:04:04.689Z,12.64
2023-04-08T00:06:33.035Z,12.38
2023-04-08T00:09:01.037Z,13.56
2023-04-08T00:11:29.140Z,14.59
2023-04-08T00:13:57.269Z,14.39
2023-04-08T00:16:25.203Z,13.19
2023-04-08T00:18:53.302Z,12.24
2023-04-08T00:21:21.333Z,12.30
2023-04-08T00:23:49.634Z,13.59
2023-04-08T00:26:17.513Z,14.52
2023-04-08T00:28:45.535Z,14.00
2023-04-08T00:31:13.440Z,12.77
2023-04-08T00:33:41.273Z,11.96
2023-04-08T00:36:09.164Z,12.75
2023-04-08T00:38:37.005Z,13.95
2023-04-08T00:41:04.864Z,14.34
2023-04-08T00:43:32.702Z,13.21
2023-04-08T00:46:00.587Z,12.14
2023-04-08T00:48:29.829Z,11.89
2023-04-08T00:50:58.874Z,13.10
2023-04-08T00:53:26.619Z,14.11
2023-04-08T00:55:54.480Z,13.48
2023-04-08T00:58:22.947Z,12.32
2023-04-08T01:01:03.924Z,11.75
2023-04-08T01:03:58.844Z,12.86
2023-04-08T01:06:42.506Z,14.03
2023-04-08T01:09:11.672Z,13.31
2023-04-08T01:11:44.120Z,12.17
2023-04-08T01:14:20.593Z,11.78
2023-04-08T01:16:48.406Z,13.08
2023-04-08T01:19:38.953Z,13.98
2023-04-08T01:22:09.507Z,12.89
2023-04-08T01:24:40.383Z,11.89
2023-04-08T01:27:09.044Z,12.57
2023-04-08T01:29:37.726Z,13.83
2023-04-08T01:32:06.760Z,13.64
2023-04-08T01:34:36.615Z,12.38
2023-04-08T01:37:04.762Z,11.82
2023-04-08T01:39:33.868Z,12.98
2023-04-08T01:42:02.678Z,14.02
2023-04-08T01:44:31.095Z,13.77
2023-04-08T01:46:59.506Z,12.54
2023-04-08T01:49:27.549Z,11.61
2023-04-08T01:51:57.095Z,11.49
2023-04-08T01:54:25.039Z,12.77
2023-04-08T01:56:54.749Z,13.84
2023-04-08T01:59:23.411Z,13.38
2023-04-08T02:01:52.255Z,12.19
2023-04-08T02:04:20.275Z,11.28
2023-04-08T02:06:48.333Z,11.41
2023-04-08T02:09:16.125Z,12.81
2023-04-08T02:11:43.884Z,13.69
2023-04-08T02:14:11.761Z,12.97
2023-04-08T02:16:58.786Z,11.81
2023-04-08T02:19:47.057Z,11.10
2023-04-08T02:22:32.154Z,12.28
2023-04-08T02:25:01.318Z,13.52
2023-04-08T02:27:29.948Z,13.47
2023-04-08T02:29:58.133Z,12.21
2023-04-08T02:32:26.651Z,11.33
2023-04-08T02:34:55.270Z,12.17
2023-04-08T02:37:23.342Z,12.81
2023-04-08T02:39:51.819Z,11.80
2023-04-08T02:42:19.670Z,11.26
2023-04-08T02:44:47.577Z,12.37
2023-04-08T02:47:15.415Z,13.00
2023-04-08T02:49:43.160Z,11.86
2023-04-08T02:52:10.927Z,11.13
2023-04-08T02:54:38.741Z,12.28
2023-04-08T02:57:06.465Z,12.76
2023-04-08T02:59:34.316Z,11.73
2023-04-08T03:02:02.215Z,10.95
2023-04-08T03:04:30.123Z,11.84
2023-04-08T03:06:57.944Z,12.57
2023-04-08T03:09:25.997Z,11.55
2023-04-08T03:11:55.074Z,10.54
2023-04-08T03:14:23.022Z,11.08
2023-04-08T03:16:51.012Z,12.24
2023-04-08T03:19:18.816Z,11.63
2023-04-08T03:21:46.623Z,10.57
2023-04-08T03:24:14.522Z,11.43
2023-04-08T03:26:42.322Z,12.12
2023-04-08T03:29:10.430Z,11.14
2023-04-08T03:31:38.479Z,10.23
2023-04-08T03:34:06.335Z,10.94
2023-04-08T03:36:34.142Z,11.94
2023-04-08T03:39:03.825Z,11.01
2023-04-08T03:41:31.758Z,10.04
2023-04-08T03:43:59.568Z,10.14
2023-04-08T03:46:27.653Z,11.55
2023-04-08T03:48:55.581Z,12.42
2023-04-08T03:51:23.707Z,11.70
2023-04-08T03:53:51.591Z,10.58
2023-04-08T03:56:19.345Z,10.18
2023-04-08T03:58:47.162Z,11.48
2023-04-08T04:01:15.010Z,12.51
2023-04-08T04:03:42.930Z,11.96
2023-04-08T04:06:10.849Z,10.83
2023-04-08T04:08:38.682Z,10.01
2023-04-08T04:11:06.453Z,10.21
2023-04-08T04:13:34.299Z,11.66
2023-04-08T04:16:02.102Z,12.27
2023-04-08T04:18:29.940Z,11.27
2023-04-08T04:20:57.806Z,10.29
2023-04-08T04:23:26.015Z,10.12
2023-04-08T04:25:53.826Z,11.42
2023-04-08T04:28:21.655Z,12.47
2023-04-08T04:30:49.452Z,11.70
2023-04-08T04:33:17.318Z,10.58
2023-04-08T04:35:45.510Z,10.08
2023-04-08T04:38:13.640Z,11.17
2023-04-08T04:40:41.595Z,12.34
2023-04-08T04:43:09.825Z,11.97
2023-04-08T04:45:37.690Z,10.86
2023-04-08T04:48:05.744Z,10.02
2023-04-08T04:50:34.087Z,10.07
2023-04-08T04:53:01.882Z,11.40
2023-04-08T04:55:29.731Z,11.00
2023-04-08T04:57:57.494Z,10.07
2023-04-08T05:00:25.425Z,9.94
2023-04-08T05:02:53.494Z,11.24
2023-04-08T05:05:21.635Z,11.97
2023-04-08T05:07:49.530Z,11.03
2023-04-08T05:10:17.426Z,10.07
2023-04-08T05:12:45.442Z,9.89
2023-04-08T05:15:13.300Z,11.17
2023-04-08T05:17:41.351Z,12.25
2023-04-08T05:20:09.541Z,11.66
2023-04-08T05:22:37.478Z,10.60
2023-04-08T05:25:06.544Z,10.28
2023-04-08T05:27:34.359Z,11.47
2023-04-08T05:30:02.214Z,11.71
2023-04-08T05:32:30.532Z,10.72
2023-04-08T05:34:58.306Z,10.23
2023-04-08T05:37:26.223Z,11.29
2023-04-08T05:39:54.141Z,12.06
2023-04-08T05:42:22.439Z,11.19
2023-04-08T05:44:50.525Z,10.26
2023-04-08T05:48:54.535Z,11.52
2023-04-08T05:51:23.021Z,12.47
2023-04-08T05:53:51.542Z,11.80
2023-04-08T05:56:19.267Z,10.85
2023-04-08T05:58:47.301Z,10.21
2023-04-08T06:01:15.916Z,11.00
2023-04-08T06:03:44.187Z,12.18
2023-04-08T06:06:12.456Z,11.45
2023-04-08T06:08:41.210Z,10.58
2023-04-08T06:11:09.400Z,11.10
2023-04-08T06:13:38.474Z,11.86
2023-04-08T06:16:20.317Z,11.01
2023-04-08T06:18:49.300Z,10.21
2023-04-08T06:21:17.367Z,11.09
2023-04-08T06:23:45.417Z,12.44
2023-04-08T06:26:13.420Z,12.67
2023-04-08T06:28:41.411Z,11.62
2023-04-08T06:31:09.296Z,10.73
2023-04-08T06:33:37.142Z,10.53
2023-04-08T06:36:07.436Z,11.83
2023-04-08T06:38:35.680Z,11.63
2023-04-08T06:41:05.980Z,10.69
2023-04-08T06:43:35.577Z,10.77
2023-04-08T06:46:03.999Z,12.06
2023-04-08T06:48:32.045Z,12.03
2023-04-08T06:51:01.441Z,11.03
2023-04-08T06:53:30.886Z,10.26
2023-04-08T06:55:58.825Z,10.17
2023-04-08T06:58:27.478Z,11.49
2023-04-08T07:00:58.783Z,11.71
2023-04-08T07:03:27.135Z,10.72
2023-04-08T07:05:55.280Z,9.99
2023-04-08T07:08:23.240Z,10.09
2023-04-08T07:10:54.105Z,11.43
2023-04-08T07:13:22.727Z,11.17
2023-04-08T07:15:52.914Z,10.30
2023-04-08T07:18:21.820Z,9.67
2023-04-08T07:20:57.875Z,9.22
2023-04-08T07:23:25.792Z,9.24
2023-04-08T07:25:57.115Z,10.83
2023-04-08T07:28:25.156Z,11.07
2023-04-08T07:30:53.160Z,10.27
2023-04-08T07:33:30.703Z,9.64
2023-04-08T07:36:01.031Z,9.19
2023-04-08T07:38:29.221Z,8.97
2023-04-08T07:40:57.355Z,10.08
2023-04-08T07:43:25.606Z,11.27
2023-04-08T07:45:53.455Z,10.77
2023-04-08T07:48:21.389Z,10.09
2023-04-08T07:51:10.029Z,9.62
2023-04-08T07:53:44.794Z,9.25
2023-04-08T07:56:16.350Z,8.99
2023-04-08T07:58:45.134Z,8.69
2023-04-08T08:01:26.742Z,8.48
2023-04-08T08:04:01.371Z,8.97
2023-04-08T08:09:16.670Z,10.69
2023-04-08T08:12:10.656Z,9.92
2023-04-08T08:14:41.698Z,9.31
2023-04-08T08:17:09.730Z,8.97
2023-04-08T08:19:37.548Z,8.79
2023-04-08T08:22:05.533Z,10.02
2023-04-08T08:24:33.439Z,11.24
2023-04-08T08:27:03.005Z,10.60
2023-04-08T08:29:31.131Z,9.89
2023-04-08T08:31:59.140Z,9.44
2023-04-08T08:34:27.209Z,9.11
2023-04-08T08:37:01.750Z,9.18
2023-04-08T08:39:29.733Z,10.67
2023-04-08T08:42:01.098Z,10.81
2023-04-08T08:44:30.869Z,10.11
2023-04-08T08:46:58.872Z,9.62
2023-04-08T08:49:27.456Z,9.31
2023-04-08T08:51:55.644Z,9.06
2023-04-08T08:54:24.049Z,9.73
2023-04-08T08:56:52.183Z,11.25
2023-04-08T08:59:20.105Z,11.13
2023-04-08T09:01:48.159Z,10.33
2023-04-08T09:04:20.879Z,9.77
2023-04-08T09:06:52.009Z,9.35
2023-04-08T09:09:20.455Z,9.07
2023-04-08T09:11:48.617Z,9.82
2023-04-08T09:14:29.179Z,11.36
2023-04-08T09:17:01.737Z,11.45
2023-04-08T09:19:32.095Z,10.60
2023-04-08T09:22:07.681Z,10.03
2023-04-08T09:24:37.393Z,9.67
2023-04-08T09:27:06.828Z,9.43
2023-04-08T09:29:37.454Z,9.26
2023-04-08T09:32:07.941Z,9.62
2023-04-08T09:34:36.808Z,11.20
2023-04-08T09:37:04.875Z,11.35
2023-04-08T09:39:32.997Z,10.72
2023-04-08T09:42:04.941Z,10.28
2023-04-08T09:44:33.363Z,9.98
2023-04-08T09:47:17.920Z,9.72
2023-04-08T09:49:58.715Z,9.52
2023-04-08T09:52:46.128Z,10.21
2023-04-08T09:55:17.875Z,12.10
2023-04-08T09:58:12.857Z,12.85
2023-04-08T10:00:50.934Z,11.88
2023-04-08T10:03:25.247Z,11.18
2023-04-08T10:05:56.436Z,10.77
2023-04-08T10:08:28.577Z,10.55
2023-04-08T10:10:59.268Z,10.38
2023-04-08T10:14:07.992Z,10.25
2023-04-08T10:16:48.062Z,10.10
2023-04-08T10:19:40.574Z,9.98
2023-04-08T10:22:34.018Z,10.54
2023-04-08T10:25:32.912Z,12.47
2023-04-08T10:28:22.736Z,12.65
2023-04-08T10:30:58.160Z,11.80
2023-04-08T10:33:40.016Z,11.28
2023-04-08T10:36:12.428Z,10.93
2023-04-08T10:38:42.874Z,10.68
2023-04-08T10:41:14.378Z,10.50
2023-04-08T10:43:42.461Z,10.37
2023-04-08T10:46:13.600Z,10.31
2023-04-08T10:48:41.473Z,10.28
2023-04-08T10:51:09.743Z,10.24
2023-04-08T10:53:42.063Z,10.18
2023-04-08T10:56:15.787Z,10.13
2023-04-08T10:58:54.908Z,10.06
2023-04-08T11:01:23.345Z,9.98
2023-04-08T11:03:51.702Z,9.95
2023-04-08T11:06:20.160Z,9.95
2023-04-08T11:08:48.263Z,9.93
2023-04-08T11:11:16.350Z,10.00
2023-04-08T11:13:53.639Z,10.06
2023-04-08T11:16:28.714Z,10.08
2023-04-08T11:18:57.087Z,10.04
2023-04-08T11:21:32.546Z,10.01
2023-04-08T11:24:00.614Z,10.02
2023-04-08T11:26:28.817Z,10.04
2023-04-08T11:28:57.570Z,10.07
2023-04-08T11:31:25.724Z,10.09
2023-04-08T11:33:58.514Z,10.32
2023-04-08T11:36:30.757Z,11.80
2023-04-08T11:38:59.454Z,12.67
2023-04-08T11:41:38.506Z,12.21
2023-04-08T11:44:07.402Z,11.76
2023-04-08T11:46:37.570Z,11.52
2023-04-08T11:49:08.347Z,11.37
2023-04-08T11:51:59.748Z,11.28
2023-04-08T11:54:32.791Z,11.21
2023-04-08T11:57:03.134Z,11.17
2023-04-08T11:59:31.668Z,11.13
2023-04-08T12:02:00.418Z,11.08
2023-04-08T12:04:28.947Z,11.04
2023-04-08T12:06:58.524Z,11.00
2023-04-08T12:09:27.412Z,10.96
2023-04-08T12:11:57.665Z,10.91
2023-04-08T12:14:28.194Z,10.89
2023-04-08T12:16:56.747Z,10.90
2023-04-08T12:19:24.734Z,10.90
2023-04-08T12:21:53.254Z,10.87
2023-04-08T12:24:21.510Z,10.85
2023-04-08T12:26:49.378Z,10.82
2023-04-08T12:29:17.479Z,10.81
2023-04-08T12:31:45.877Z,10.82
2023-04-08T12:34:14.101Z,10.87
2023-04-08T12:36:42.083Z,10.96
2023-04-08T12:39:10.153Z,11.08
2023-04-08T12:41:38.092Z,11.15
2023-04-08T12:44:06.777Z,11.13
2023-04-08T12:46:34.696Z,11.18
2023-04-08T12:49:05.243Z,11.26
2023-04-08T12:51:33.855Z,11.26
2023-04-08T12:54:04.257Z,11.34
2023-04-08T12:56:33.234Z,11.48
2023-04-08T12:59:01.559Z,11.61
2023-04-08T13:01:31.039Z,11.72
2023-04-08T13:03:59.461Z,11.83
2023-04-08T13:06:28.544Z,11.96
2023-04-08T13:08:56.911Z,12.06
2023-04-08T13:11:25.449Z,12.17
2023-04-08T13:13:53.671Z,12.30
2023-04-08T13:16:22.250Z,12.39
2023-04-08T13:18:50.691Z,12.48
2023-04-08T13:21:18.954Z,12.59
2023-04-08T13:23:54.498Z,12.70
2023-04-08T13:26:22.601Z,12.84
2023-04-08T13:28:57.626Z,12.98
2023-04-08T13:31:26.606Z,13.09
2023-04-08T13:33:57.877Z,13.16
2023-04-08T13:36:28.892Z,13.27
2023-04-08T13:38:57.467Z,13.35
2023-04-08T13:41:28.986Z,13.40
2023-04-08T13:46:39.735Z,13.48
2023-04-08T13:49:07.679Z,13.49
2023-04-08T13:51:35.903Z,13.48
2023-04-08T13:54:04.399Z,13.49
2023-04-08T13:56:32.535Z,13.43
2023-04-08T13:59:00.944Z,13.35
2023-04-08T14:01:30.016Z,13.27
2023-04-08T14:04:00.989Z,13.17
2023-04-08T14:06:29.164Z,13.08
2023-04-08T14:08:57.144Z,13.01
2023-04-08T14:11:25.023Z,12.93
2023-04-08T14:13:53.142Z,12.86
2023-04-08T14:16:21.705Z,12.79
2023-04-08T14:18:51.480Z,12.77
2023-04-08T14:21:20.204Z,12.71
2023-04-08T14:23:48.881Z,12.63
2023-04-08T14:26:17.365Z,12.61
2023-04-08T14:28:45.493Z,12.61
2023-04-08T14:31:27.922Z,12.58
2023-04-08T14:34:05.061Z,12.56
2023-04-08T14:36:35.749Z,12.49
2023-04-08T14:39:04.466Z,12.50
2023-04-08T14:41:32.381Z,12.48
2023-04-08T14:44:00.589Z,12.41
2023-04-08T14:46:29.417Z,12.38
2023-04-08T14:48:58.848Z,12.35
2023-04-08T14:51:27.206Z,12.34
2023-04-08T14:53:55.460Z,12.33
2023-04-08T14:56:23.352Z,12.32
2023-04-08T14:58:51.572Z,12.32
2023-04-08T15:01:19.774Z,12.32
2023-04-08T15:03:48.030Z,12.32
2023-04-08T15:06:18.615Z,12.33
2023-04-08T15:08:46.620Z,12.34
2023-04-08T15:11:14.634Z,12.33
2023-04-08T15:13:42.567Z,12.34
2023-04-08T15:16:10.394Z,12.35
2023-04-08T15:18:38.799Z,12.37
2023-04-08T15:21:06.608Z,12.38
2023-04-08T15:23:34.606Z,12.39
2023-04-08T15:26:02.456Z,12.39
2023-04-08T15:28:33.556Z,12.38
2023-04-08T15:31:01.852Z,12.38
2023-04-08T15:33:30.186Z,12.38
2023-04-08T15:36:03.783Z,12.39
2023-04-08T15:38:33.727Z,12.39
2023-04-08T15:41:01.698Z,12.39
2023-04-08T15:43:30.572Z,12.40
2023-04-08T15:46:01.454Z,12.42
2023-04-08T15:48:29.357Z,12.44
2023-04-08T15:50:57.305Z,12.44
2023-04-08T15:53:25.207Z,12.46
2023-04-08T15:55:53.053Z,12.47
2023-04-08T15:58:21.279Z,12.48
2023-04-08T16:00:49.525Z,12.49
2023-04-08T16:03:17.522Z,12.51
2023-04-08T16:05:45.504Z,12.51
2023-04-08T16:08:13.906Z,12.51
2023-04-08T16:10:41.879Z,12.50
2023-04-08T16:13:09.780Z,12.48
2023-04-08T16:15:38.256Z,12.45
2023-04-08T16:18:08.025Z,12.42
2023-04-08T16:20:39.395Z,12.40
2023-04-08T16:23:07.642Z,12.36
2023-04-08T16:25:35.651Z,12.33
2023-04-08T16:28:03.892Z,12.29
2023-04-08T16:30:31.775Z,12.25
2023-04-08T16:32:59.729Z,12.22
2023-04-08T16:35:27.693Z,12.19
2023-04-08T16:37:55.691Z,12.15
2023-04-08T16:40:23.641Z,12.10
2023-04-08T16:42:52.343Z,12.06
2023-04-08T16:45:20.335Z,12.01
2023-04-08T16:47:48.252Z,11.96
2023-04-08T16:50:16.299Z,11.91
2023-04-08T16:52:49.433Z,11.85
2023-04-08T16:55:18.176Z,11.79
2023-04-08T16:57:46.315Z,11.73
2023-04-08T17:00:16.034Z,11.67
2023-04-08T17:02:45.015Z,11.60
2023-04-08T17:05:12.974Z,11.54
2023-04-08T17:07:41.089Z,11.47
2023-04-08T17:10:09.911Z,11.40
2023-04-08T17:12:37.862Z,11.33
2023-04-08T17:15:06.549Z,11.26
2023-04-08T17:17:34.473Z,11.20
2023-04-08T17:20:02.935Z,11.13
2023-04-08T17:22:31.161Z,11.06
2023-04-08T17:24:59.134Z,11.00
2023-04-08T17:27:27.262Z,10.94
2023-04-08T17:29:57.850Z,10.87
2023-04-08T17:32:26.411Z,11.20
2023-04-08T17:34:54.634Z,12.86
2023-04-08T17:37:22.575Z,13.94
2023-04-08T17:39:51.647Z,13.33
2023-04-08T17:42:22.481Z,12.63
2023-04-08T17:44:50.456Z,12.16
2023-04-08T17:47:18.690Z,11.83
2023-04-08T17:49:46.973Z,11.58
2023-04-08T17:52:14.852Z,11.36
2023-04-08T17:54:43.070Z,11.16
2023-04-08T17:57:11.067Z,10.99
2023-04-08T17:59:38.942Z,11.29
2023-04-08T18:02:06.794Z,12.88
2023-04-08T18:04:34.859Z,13.83
2023-04-08T18:07:05.350Z,13.15
2023-04-08T18:09:33.337Z,12.37
2023-04-08T18:12:01.310Z,11.85
2023-04-08T18:14:30.136Z,11.46
2023-04-08T18:16:58.358Z,11.16
2023-04-08T18:19:26.699Z,10.90
2023-04-08T18:21:55.487Z,11.16
2023-04-08T18:24:24.374Z,12.71
2023-04-08T18:27:01.408Z,13.59
2023-04-08T18:29:29.834Z,12.77
2023-04-08T18:31:58.535Z,11.99
2023-04-08T18:34:26.812Z,11.45
2023-04-08T18:36:54.713Z,11.04
2023-04-08T18:39:22.656Z,11.15
2023-04-08T18:41:50.540Z,12.55
2023-04-08T18:44:18.632Z,13.37
2023-04-08T18:46:46.481Z,12.61
2023-04-08T18:49:14.309Z,11.83
2023-04-08T18:51:46.366Z,11.26
2023-04-08T18:54:27.496Z,10.82
2023-04-08T18:56:55.403Z,11.17
2023-04-08T18:59:23.734Z,12.69
2023-04-08T19:01:51.804Z,13.46
2023-04-08T19:04:22.679Z,12.60
2023-04-08T19:06:51.625Z,11.75
2023-04-08T19:09:22.625Z,11.15
2023-04-08T19:11:50.813Z,10.70
2023-04-08T19:14:18.784Z,10.78
2023-04-08T19:16:46.609Z,12.22
2023-04-08T19:19:14.628Z,13.09
2023-04-08T19:21:53.499Z,12.33
2023-04-08T19:24:22.106Z,11.46
2023-04-08T19:26:53.193Z,10.89
2023-04-08T19:29:23.393Z,10.47
2023-04-08T19:31:51.430Z,10.55
2023-04-08T19:34:34.962Z,12.01
2023-04-08T19:37:06.849Z,12.92
2023-04-08T19:39:34.959Z,12.10
2023-04-08T19:42:03.071Z,11.32
2023-04-08T19:44:34.927Z,10.78
2023-04-08T19:47:07.787Z,10.38
2023-04-08T19:49:36.043Z,10.53
2023-04-08T19:52:04.168Z,12.03
2023-04-08T19:54:32.555Z,12.94
2023-04-08T19:57:00.757Z,12.18
2023-04-08T19:59:28.868Z,11.38
2023-04-08T20:01:57.070Z,10.82
2023-04-08T20:04:25.561Z,10.39
2023-04-08T20:06:53.403Z,10.05
2023-04-08T20:09:21.220Z,10.34
2023-04-08T20:11:49.069Z,11.85
2023-04-08T20:14:17.260Z,12.69
2023-04-08T20:16:45.182Z,11.88
2023-04-08T20:19:12.982Z,11.05
2023-04-08T20:21:41.821Z,10.47
2023-04-08T20:24:09.758Z,10.05
2023-04-08T20:26:37.609Z,10.25
2023-04-08T20:29:05.928Z,11.74
2023-04-08T20:31:33.839Z,12.59
2023-04-08T20:34:03.412Z,11.78
2023-04-08T20:36:32.815Z,10.94
2023-04-08T20:39:00.718Z,10.35
2023-04-08T20:41:28.653Z,9.91
2023-04-08T20:43:56.598Z,10.15
2023-04-08T20:46:24.628Z,11.66
2023-04-08T20:48:52.775Z,12.49
2023-04-08T20:51:21.480Z,11.66
2023-04-08T20:53:49.473Z,10.81
2023-04-08T20:56:17.631Z,10.23
2023-04-08T20:58:45.512Z,9.81
2023-04-08T21:01:13.517Z,10.01
2023-04-08T21:03:41.572Z,11.53
2023-04-08T21:06:19.418Z,12.39
2023-04-08T21:08:48.104Z,11.55
2023-04-08T21:11:16.765Z,10.73
2023-04-08T21:13:46.578Z,10.15
2023-04-08T21:16:16.591Z,10.11
2023-04-08T21:18:44.473Z,11.52
2023-04-08T21:21:12.427Z,12.36
2023-04-08T21:23:40.519Z,11.56
2023-04-08T21:26:15.585Z,10.74
2023-04-08T21:28:44.143Z,10.15
2023-04-08T21:31:13.260Z,9.76
2023-04-08T21:33:41.140Z,10.38
2023-04-08T21:36:09.098Z,11.95
2023-04-08T21:38:37.140Z,12.61
2023-04-08T21:41:05.073Z,11.73
2023-04-08T21:43:33.018Z,10.91
2023-04-08T21:46:01.026Z,10.35
2023-04-08T21:48:29.134Z,9.94
2023-04-08T21:50:57.346Z,10.16
2023-04-08T21:53:25.304Z,11.69
2023-04-08T21:55:53.152Z,12.55
2023-04-08T21:58:21.286Z,11.78
2023-04-08T22:00:50.724Z,10.97
2023-04-08T22:03:18.750Z,10.41
2023-04-08T22:05:46.690Z,10.40
2023-04-08T22:08:14.823Z,11.81
2023-04-08T22:10:42.815Z,12.74
2023-04-08T22:13:10.757Z,12.00
2023-04-08T22:15:38.633Z,11.19
2023-04-08T22:18:07.087Z,10.62
2023-04-08T22:20:34.962Z,10.21
2023-04-08T22:23:02.750Z,10.28
2023-04-08T22:25:30.701Z,11.71
2023-04-08T22:27:58.615Z,12.62
2023-04-08T22:30:26.424Z,11.90
2023-04-08T22:32:54.306Z,11.13
2023-04-08T22:35:22.212Z,10.62
2023-04-08T22:37:49.988Z,10.24
2023-04-08T22:40:18.170Z,9.95
2023-04-08T22:42:45.941Z,10.27
2023-04-08T22:45:13.795Z,11.81
2023-04-08T22:47:41.649Z,12.67
2023-04-08T22:50:10.154Z,11.91
2023-04-08T22:52:37.936Z,11.10
2023-04-08T22:55:07.116Z,10.54
2023-04-08T22:57:35.138Z,10.14
2023-04-08T23:00:05.031Z,9.83
2023-04-08T23:02:32.845Z,10.06
2023-04-08T23:05:00.923Z,11.57
2023-04-08T23:07:28.885Z,12.46
2023-04-08T23:09:56.774Z,11.73
2023-04-08T23:12:24.628Z,10.92
2023-04-08T23:14:52.499Z,10.38
2023-04-08T23:17:20.415Z,10.00
2023-04-08T23:19:48.218Z,10.20
2023-04-08T23:22:16.145Z,11.70
2023-04-08T23:24:44.017Z,12.53
2023-04-08T23:27:11.908Z,11.77
2023-04-08T23:29:40.038Z,10.97
2023-04-08T23:32:07.965Z,10.44
2023-04-08T23:34:37.254Z,10.05
2023-04-08T23:37:05.041Z,9.76
2023-04-08T23:39:32.963Z,10.34
2023-04-08T23:42:01.784Z,11.92
2023-04-08T23:44:29.732Z,12.63
2023-04-08T23:46:57.578Z,11.82
2023-04-08T23:49:25.435Z,11.03
2023-04-08T23:51:53.620Z,10.49
2023-04-08T23:54:22.619Z,10.10
2023-04-08T23:56:50.716Z,9.79
2023-04-08T23:59:19.043Z,9.98
